Lanxi, China
Current Conditions -  °F | °C
As of 1:30 AM on Sunday 23 Nov 2014 (Local Time) from ZSHC Reporting Station
Moderate Fog Moderate Fog  
Wind Chill: 61°   Ceiling: 400
Heat Index: 61°   Visibility: 0.18mi
Dew Point: 57°   Wind: 2mph
Humidity: 88%   Direction: NA
Pressure: 30.15"   Gusts: NA
Location:  29.22°N, 119.46°E
Report Text: ZSHC 221730Z VRB01MPS 0300 R07/0350N R06/0375V0800NFGVV004 16/14 Q1021 NOSIG
Loading
Personal Weather Stations






























Interactive Weather Map New forecast layout! Learn more

10-Day Weather Forecast

Advertisements
Track Severe Weather on mobile